SIA811 ZBAD-WSSS
Flight info
| Callsign | SIA811 |
|---|---|
| Flight time | N/A |
| Altitude | 34100 |
| Route | OMDEK6K OMDEK W37 GUSIV/K0932S1070 W37 PEXID/K0939S1040 W37 OMBEB/K0932S1070 R473 NNX/K0943S1040 R473 WYN W18 NLG/K0937S1070 W18 TAMOT/N0511F340 DCT ALLEY/N0503F360 V32 EPDOS L642 EPKAL/K0935F360 L642 ESPOB/N0509F360 Q801 ESBUM/N0505F370 Q802 ELALO ELALO1A |
| Aircraft | B77W/H-SDE1E2E3FGHIJ4J5M1P2RWXYZ/LB1D1 |
Departure
| Time | 2026-04-30 19:09 |
|---|---|
| Airport | Beijing Daxing International Airport (ZBAD) |
Arrival
| Time | N/A |
|---|---|
| Airport | Singapore Changi Airport (WSSS) |
| Time | Latitude | Longitude | Altitude | Speed | Heading |
|---|---|---|---|---|---|
| 2026-04-30 18:45 | 39.50398 | 116.41129 | 90 ft | 0 kts | 8° |
| 2026-04-30 18:58 | 39.50380 | 116.41125 | 92 ft | 4 kts | 6° |
| 2026-04-30 18:58 | 39.50353 | 116.41122 | 91 ft | 4 kts | 4° |
| 2026-04-30 18:58 | 39.50327 | 116.41119 | 91 ft | 3 kts | 6° |
| 2026-04-30 18:59 | 39.50298 | 116.41145 | 93 ft | 4 kts | 258° |
| 2026-04-30 19:00 | 39.50303 | 116.41179 | 89 ft | 0 kts | 263° |
| 2026-04-30 19:02 | 39.50303 | 116.41177 | 89 ft | 2 kts | 263° |
| 2026-04-30 19:02 | 39.50276 | 116.40948 | 92 ft | 10 kts | 237° |
| 2026-04-30 19:03 | 39.50138 | 116.40938 | 92 ft | 12 kts | 173° |
| 2026-04-30 19:03 | 39.49996 | 116.40896 | 92 ft | 11 kts | 250° |
| 2026-04-30 19:04 | 39.49962 | 116.40586 | 91 ft | 22 kts | 263° |
| 2026-04-30 19:04 | 39.49931 | 116.40253 | 93 ft | 12 kts | 262° |
| 2026-04-30 19:05 | 39.49836 | 116.40149 | 95 ft | 17 kts | 173° |
| 2026-04-30 19:05 | 39.49525 | 116.40197 | 96 ft | 26 kts | 173° |
| 2026-04-30 19:06 | 39.49166 | 116.40250 | 97 ft | 26 kts | 173° |
| 2026-04-30 19:06 | 39.48986 | 116.40278 | 96 ft | 26 kts | 173° |
| 2026-04-30 19:06 | 39.48627 | 116.40337 | 95 ft | 26 kts | 172° |
| 2026-04-30 19:07 | 39.48498 | 116.40296 | 99 ft | 9 kts | 263° |
| 2026-04-30 19:07 | 39.48491 | 116.40208 | 104 ft | 12 kts | 265° |
| 2026-04-30 19:08 | 39.48726 | 116.40097 | 108 ft | 55 kts | 353° |
| 2026-04-30 19:08 | 39.50444 | 116.39827 | 108 ft | 184 kts | 353° |
| 2026-04-30 19:08 | 39.51754 | 116.39633 | 658 ft | 183 kts | 353° |
| 2026-04-30 19:09 | 39.54380 | 116.39174 | 1827 ft | 198 kts | 347° |
| 2026-04-30 19:09 | 39.55820 | 116.38900 | 2040 ft | 221 kts | 348° |
| 2026-04-30 19:09 | 39.57432 | 116.38637 | 2219 ft | 247 kts | 349° |
| 2026-04-30 19:10 | 39.61004 | 116.38079 | 3379 ft | 265 kts | 351° |
| 2026-04-30 19:10 | 39.64680 | 116.37490 | 4965 ft | 265 kts | 349° |
| 2026-04-30 19:11 | 39.66389 | 116.36624 | 5537 ft | 269 kts | 321° |
| 2026-04-30 19:11 | 39.67956 | 116.32363 | 6876 ft | 273 kts | 270° |
| 2026-04-30 19:11 | 39.67837 | 116.29879 | 7423 ft | 279 kts | 266° |
| 2026-04-30 19:12 | 39.67667 | 116.27353 | 8103 ft | 282 kts | 266° |
| 2026-04-30 19:12 | 39.67492 | 116.24818 | 8834 ft | 283 kts | 266° |
| 2026-04-30 19:12 | 39.67322 | 116.22259 | 9494 ft | 286 kts | 266° |
| 2026-04-30 19:13 | 39.66991 | 116.17025 | 10308 ft | 301 kts | 266° |
| 2026-04-30 19:13 | 39.66631 | 116.11203 | 10633 ft | 345 kts | 266° |
| 2026-04-30 19:13 | 39.66432 | 116.08014 | 10851 ft | 363 kts | 266° |
| 2026-04-30 19:14 | 39.66220 | 116.04700 | 11341 ft | 370 kts | 264° |
| 2026-04-30 19:14 | 39.65541 | 116.01458 | 11746 ft | 380 kts | 243° |
| 2026-04-30 19:14 | 39.63924 | 115.98732 | 12432 ft | 386 kts | 222° |
| 2026-04-30 19:14 | 39.61645 | 115.96887 | 13212 ft | 390 kts | 203° |
| 2026-04-30 19:15 | 39.58988 | 115.96090 | 13894 ft | 398 kts | 183° |
| 2026-04-30 19:15 | 39.53389 | 115.96680 | 15010 ft | 410 kts | 175° |
| 2026-04-30 19:15 | 39.50532 | 115.97109 | 15609 ft | 415 kts | 174° |
| 2026-04-30 19:16 | 39.47648 | 115.97568 | 16249 ft | 419 kts | 174° |
| 2026-04-30 19:16 | 39.44739 | 115.98029 | 16876 ft | 424 kts | 174° |
| 2026-04-30 19:16 | 39.38816 | 115.98940 | 18098 ft | 433 kts | 175° |
| 2026-04-30 19:17 | 39.35804 | 115.99391 | 18630 ft | 438 kts | 175° |
| 2026-04-30 19:17 | 39.29691 | 116.00296 | 19746 ft | 446 kts | 176° |
| 2026-04-30 19:17 | 39.26595 | 116.00753 | 20303 ft | 450 kts | 176° |
| 2026-04-30 19:18 | 39.21380 | 116.01523 | 21203 ft | 457 kts | 176° |
| 2026-04-30 19:18 | 39.17125 | 116.02150 | 21924 ft | 463 kts | 176° |
| 2026-04-30 19:18 | 39.13908 | 116.02608 | 22461 ft | 467 kts | 177° |
| 2026-04-30 19:19 | 39.10663 | 116.03048 | 22990 ft | 471 kts | 178° |
| 2026-04-30 19:19 | 39.07390 | 116.03482 | 23505 ft | 475 kts | 178° |
| 2026-04-30 19:19 | 39.00761 | 116.04364 | 24357 ft | 483 kts | 178° |
| 2026-04-30 19:20 | 38.97411 | 116.04813 | 24767 ft | 487 kts | 178° |
| 2026-04-30 19:20 | 38.95696 | 116.05043 | 24980 ft | 489 kts | 178° |
| 2026-04-30 19:20 | 38.88820 | 116.05969 | 25795 ft | 496 kts | 179° |
| 2026-04-30 19:21 | 38.85375 | 116.06433 | 26208 ft | 500 kts | 179° |
| 2026-04-30 19:21 | 38.78404 | 116.07369 | 26977 ft | 508 kts | 179° |
| 2026-04-30 19:22 | 38.71374 | 116.08313 | 27712 ft | 515 kts | 179° |
| 2026-04-30 19:22 | 38.60954 | 116.07227 | 28559 ft | 494 kts | 210° |
| 2026-04-30 19:23 | 38.51257 | 116.02257 | 29504 ft | 506 kts | 208° |
| 2026-04-30 19:24 | 38.44647 | 115.99109 | 30273 ft | 507 kts | 208° |
| 2026-04-30 19:24 | 38.41343 | 115.97547 | 30637 ft | 507 kts | 208° |
| 2026-04-30 19:24 | 38.34736 | 115.94408 | 31322 ft | 507 kts | 209° |
| 2026-04-30 19:25 | 38.24494 | 115.90568 | 32312 ft | 524 kts | 197° |
| 2026-04-30 19:26 | 38.17203 | 115.89541 | 32897 ft | 529 kts | 195° |
| 2026-04-30 19:26 | 38.09900 | 115.88453 | 33503 ft | 527 kts | 197° |
| 2026-04-30 19:26 | 38.06263 | 115.87872 | 33799 ft | 528 kts | 197° |
| 2026-04-30 19:27 | 37.98939 | 115.86701 | 33960 ft | 532 kts | 197° |
| 2026-04-30 19:28 | 37.87998 | 115.84989 | 33973 ft | 524 kts | 197° |
| 2026-04-30 19:29 | 37.73646 | 115.82455 | 33983 ft | 512 kts | 204° |
| 2026-04-30 19:30 | 37.60669 | 115.76072 | 33997 ft | 499 kts | 216° |
| 2026-04-30 19:31 | 37.48005 | 115.68769 | 33985 ft | 500 kts | 215° |
| 2026-04-30 19:31 | 37.38541 | 115.63321 | 33986 ft | 496 kts | 216° |
| 2026-04-30 19:32 | 37.32331 | 115.59605 | 33989 ft | 493 kts | 216° |
| 2026-04-30 19:32 | 37.26145 | 115.55900 | 33991 ft | 492 kts | 216° |
| 2026-04-30 19:33 | 37.19967 | 115.52225 | 33993 ft | 491 kts | 216° |
| 2026-04-30 19:33 | 37.13798 | 115.48572 | 33993 ft | 490 kts | 216° |
| 2026-04-30 19:34 | 37.07639 | 115.44931 | 33989 ft | 489 kts | 216° |
| 2026-04-30 19:35 | 36.98408 | 115.39485 | 33996 ft | 489 kts | 216° |
| 2026-04-30 19:35 | 36.92254 | 115.35864 | 34001 ft | 489 kts | 216° |
| 2026-04-30 19:36 | 36.86107 | 115.32251 | 34003 ft | 488 kts | 216° |
| 2026-04-30 19:36 | 36.76887 | 115.26845 | 33996 ft | 488 kts | 216° |
| 2026-04-30 19:37 | 36.70740 | 115.23250 | 34000 ft | 487 kts | 216° |
| 2026-04-30 19:37 | 36.64617 | 115.19655 | 34001 ft | 486 kts | 216° |
| 2026-04-30 19:38 | 36.58502 | 115.16061 | 34006 ft | 486 kts | 215° |
| 2026-04-30 19:38 | 36.52389 | 115.12490 | 34010 ft | 485 kts | 215° |
| 2026-04-30 19:39 | 36.46269 | 115.08954 | 34007 ft | 485 kts | 215° |
| 2026-04-30 19:39 | 36.40149 | 115.05428 | 34008 ft | 486 kts | 213° |
| 2026-04-30 19:40 | 36.33607 | 115.02833 | 34013 ft | 502 kts | 201° |
| 2026-04-30 19:40 | 36.26591 | 115.01714 | 34017 ft | 512 kts | 193° |
| 2026-04-30 19:41 | 36.19473 | 115.01066 | 34017 ft | 513 kts | 193° |
| 2026-04-30 19:41 | 36.12358 | 115.00407 | 34015 ft | 513 kts | 193° |
| 2026-04-30 19:42 | 36.05252 | 114.99701 | 34016 ft | 512 kts | 193° |
| 2026-04-30 19:42 | 35.98148 | 114.98971 | 34018 ft | 512 kts | 193° |
| 2026-04-30 19:43 | 35.91051 | 114.98241 | 34019 ft | 512 kts | 193° |
| 2026-04-30 19:44 | 35.80394 | 114.97155 | 34021 ft | 512 kts | 193° |
| 2026-04-30 19:44 | 35.73292 | 114.96434 | 34031 ft | 512 kts | 193° |
| 2026-04-30 19:45 | 35.66189 | 114.95714 | 34032 ft | 512 kts | 193° |
| 2026-04-30 19:45 | 35.59080 | 114.94995 | 34035 ft | 512 kts | 193° |
| 2026-04-30 19:46 | 35.52028 | 114.94283 | 34036 ft | 513 kts | 193° |
| 2026-04-30 19:46 | 35.44907 | 114.93565 | 34040 ft | 513 kts | 193° |
| 2026-04-30 19:47 | 35.37799 | 114.92850 | 34041 ft | 513 kts | 193° |
| 2026-04-30 19:47 | 35.30680 | 114.92134 | 34047 ft | 513 kts | 193° |
| 2026-04-30 19:48 | 35.23559 | 114.91420 | 34045 ft | 513 kts | 193° |
| 2026-04-30 19:48 | 35.16436 | 114.90707 | 34056 ft | 514 kts | 193° |
| 2026-04-30 19:49 | 35.09313 | 114.89996 | 34063 ft | 514 kts | 193° |
| 2026-04-30 19:49 | 34.98628 | 114.88930 | 34059 ft | 513 kts | 193° |
| 2026-04-30 19:50 | 34.93130 | 114.88383 | 34065 ft | 513 kts | 193° |
| 2026-04-30 19:50 | 34.87211 | 114.87795 | 34069 ft | 513 kts | 193° |
| 2026-04-30 19:51 | 34.80095 | 114.87089 | 34073 ft | 513 kts | 193° |
| 2026-04-30 19:51 | 34.72994 | 114.86386 | 34078 ft | 512 kts | 193° |
| 2026-04-30 19:52 | 34.65899 | 114.85685 | 34082 ft | 511 kts | 193° |
| 2026-04-30 19:52 | 34.58821 | 114.84986 | 34084 ft | 510 kts | 193° |
| 2026-04-30 19:53 | 34.51758 | 114.84290 | 34084 ft | 509 kts | 192° |
| 2026-04-30 19:53 | 34.44708 | 114.83597 | 34087 ft | 508 kts | 192° |
| 2026-04-30 19:54 | 34.37635 | 114.82898 | 34102 ft | 514 kts | 192° |
| 2026-04-30 19:54 | 34.30461 | 114.82192 | 34106 ft | 520 kts | 192° |
| 2026-04-30 19:55 | 34.23227 | 114.81488 | 34093 ft | 522 kts | 192° |
| 2026-04-30 19:55 | 34.15991 | 114.80783 | 34091 ft | 521 kts | 192° |
| 2026-04-30 19:56 | 34.08766 | 114.80100 | 34090 ft | 520 kts | 192° |
| 2026-04-30 19:56 | 34.01576 | 114.79427 | 34090 ft | 517 kts | 192° |
| 2026-04-30 19:57 | 33.94420 | 114.78753 | 34091 ft | 514 kts | 192° |
| 2026-04-30 19:57 | 33.87296 | 114.78082 | 34100 ft | 513 kts | 191° |
| 2026-04-30 19:58 | 33.80196 | 114.77399 | 34100 ft | 511 kts | 192° |
| 2026-04-30 19:58 | 33.73162 | 114.76679 | 34107 ft | 511 kts | 192° |
| 2026-04-30 19:59 | 33.66077 | 114.75997 | 34106 ft | 511 kts | 191° |
| 2026-04-30 20:00 | 33.55442 | 114.75022 | 34109 ft | 510 kts | 192° |
| 2026-04-30 20:00 | 33.48373 | 114.74220 | 34111 ft | 510 kts | 192° |
| 2026-04-30 20:01 | 33.37737 | 114.73194 | 34108 ft | 512 kts | 191° |
| 2026-04-30 20:01 | 33.30586 | 114.72540 | 34112 ft | 512 kts | 191° |
| 2026-04-30 20:02 | 33.19978 | 114.71541 | 34110 ft | 512 kts | 191° |
| 2026-04-30 20:03 | 33.09327 | 114.70483 | 34118 ft | 512 kts | 191° |
| 2026-04-30 20:03 | 33.02219 | 114.69770 | 34114 ft | 513 kts | 191° |
| 2026-04-30 20:04 | 32.95049 | 114.69059 | 34119 ft | 514 kts | 191° |
| 2026-04-30 20:05 | 32.84384 | 114.68011 | 34120 ft | 516 kts | 191° |
| 2026-04-30 20:05 | 32.73632 | 114.67006 | 34129 ft | 517 kts | 191° |
| 2026-04-30 20:06 | 32.66448 | 114.66335 | 34134 ft | 518 kts | 191° |
| 2026-04-30 20:06 | 32.59253 | 114.65660 | 34129 ft | 519 kts | 191° |
| 2026-04-30 20:07 | 32.52054 | 114.64986 | 34130 ft | 519 kts | 191° |
| 2026-04-30 20:08 | 32.41262 | 114.63977 | 34135 ft | 518 kts | 190° |
| 2026-04-30 20:08 | 32.34086 | 114.63300 | 34132 ft | 517 kts | 191° |
| 2026-04-30 20:09 | 32.26925 | 114.62601 | 34132 ft | 516 kts | 191° |
| 2026-04-30 20:09 | 32.16209 | 114.61555 | 34133 ft | 514 kts | 190° |
| 2026-04-30 20:10 | 32.05518 | 114.60520 | 34141 ft | 513 kts | 190° |
| 2026-04-30 20:11 | 31.94863 | 114.59492 | 34145 ft | 512 kts | 190° |
| 2026-04-30 20:11 | 31.87764 | 114.58807 | 34150 ft | 511 kts | 190° |
| 2026-04-30 20:12 | 31.77121 | 114.57783 | 34154 ft | 511 kts | 190° |
| 2026-04-30 20:13 | 31.70029 | 114.57102 | 34160 ft | 511 kts | 190° |
| 2026-04-30 20:13 | 31.62932 | 114.56420 | 34160 ft | 512 kts | 190° |
| 2026-04-30 20:14 | 31.55840 | 114.55736 | 34164 ft | 512 kts | 190° |
| 2026-04-30 20:14 | 31.48742 | 114.55047 | 34156 ft | 512 kts | 190° |
| 2026-04-30 20:15 | 31.41646 | 114.54360 | 34166 ft | 511 kts | 190° |
| 2026-04-30 20:15 | 31.34552 | 114.53677 | 34165 ft | 511 kts | 189° |
| 2026-04-30 20:16 | 31.27474 | 114.52941 | 34158 ft | 509 kts | 193° |
| 2026-04-30 20:16 | 31.20667 | 114.51004 | 34149 ft | 501 kts | 204° |
| 2026-04-30 20:17 | 31.14367 | 114.47826 | 34143 ft | 495 kts | 212° |
| 2026-04-30 20:17 | 31.08241 | 114.44169 | 34152 ft | 495 kts | 212° |
| 2026-04-30 20:18 | 31.02049 | 114.40522 | 34147 ft | 496 kts | 211° |
| 2026-04-30 20:18 | 30.95906 | 114.36968 | 34132 ft | 497 kts | 211° |
| 2026-04-30 20:19 | 30.89690 | 114.33441 | 34153 ft | 498 kts | 209° |
| 2026-04-30 20:19 | 30.83340 | 114.30171 | 34152 ft | 499 kts | 208° |
| 2026-04-30 20:20 | 30.77026 | 114.26834 | 34150 ft | 498 kts | 210° |
| 2026-04-30 20:20 | 30.72040 | 114.24114 | 34143 ft | 498 kts | 210° |
| 2026-04-30 20:21 | 30.65772 | 114.20704 | 34147 ft | 497 kts | 210° |
| 2026-04-30 20:21 | 30.59498 | 114.17315 | 34139 ft | 497 kts | 209° |
| 2026-04-30 20:22 | 30.53267 | 114.13866 | 34138 ft | 496 kts | 210° |
| 2026-04-30 20:22 | 30.47006 | 114.10466 | 34133 ft | 497 kts | 209° |
| 2026-04-30 20:23 | 30.40722 | 114.07110 | 34129 ft | 497 kts | 209° |
| 2026-04-30 20:23 | 30.34442 | 114.03741 | 34128 ft | 497 kts | 209° |
| 2026-04-30 20:24 | 30.28169 | 114.00370 | 34131 ft | 497 kts | 209° |
| 2026-04-30 20:24 | 30.21883 | 113.97001 | 34130 ft | 498 kts | 209° |
| 2026-04-30 20:25 | 30.12452 | 113.91974 | 34129 ft | 498 kts | 209° |
| 2026-04-30 20:26 | 30.03010 | 113.86949 | 34128 ft | 498 kts | 209° |
| 2026-04-30 20:26 | 29.93557 | 113.81925 | 34127 ft | 499 kts | 209° |
| 2026-04-30 20:27 | 29.87013 | 113.79156 | 34130 ft | 506 kts | 198° |
| 2026-04-30 20:27 | 29.80022 | 113.77865 | 34129 ft | 513 kts | 188° |
| 2026-04-30 20:28 | 29.65731 | 113.77008 | 34134 ft | 515 kts | 187° |
| 2026-04-30 20:30 | 29.47862 | 113.75782 | 34134 ft | 514 kts | 188° |
| 2026-04-30 20:31 | 29.26497 | 113.74306 | 34149 ft | 514 kts | 188° |
| 2026-04-30 20:32 | 29.08492 | 113.74507 | 34149 ft | 517 kts | 182° |
| 2026-04-30 20:33 | 28.97744 | 113.74832 | 34163 ft | 517 kts | 183° |
| 2026-04-30 20:34 | 28.86942 | 113.75131 | 34159 ft | 518 kts | 183° |
| 2026-04-30 20:35 | 28.76129 | 113.75434 | 34167 ft | 518 kts | 183° |
| 2026-04-30 20:35 | 28.65399 | 113.74956 | 34176 ft | 514 kts | 189° |
| 2026-04-30 20:36 | 28.59468 | 113.74474 | 34226 ft | 515 kts | 189° |
| 2026-04-30 20:36 | 28.52338 | 113.73934 | 34767 ft | 511 kts | 188° |
| 2026-04-30 20:37 | 28.48792 | 113.73678 | 35076 ft | 509 kts | 188° |
| 2026-04-30 20:37 | 28.45262 | 113.73424 | 35351 ft | 508 kts | 189° |
| 2026-04-30 20:37 | 28.41733 | 113.73170 | 35573 ft | 507 kts | 189° |
| 2026-04-30 20:37 | 28.38214 | 113.72914 | 35752 ft | 507 kts | 189° |
| 2026-04-30 20:38 | 28.34690 | 113.72658 | 35927 ft | 508 kts | 189° |
| 2026-04-30 20:38 | 28.31168 | 113.72403 | 36077 ft | 508 kts | 189° |
| 2026-04-30 20:38 | 28.27626 | 113.72145 | 36125 ft | 510 kts | 189° |
| 2026-04-30 20:39 | 28.17081 | 113.71351 | 36170 ft | 502 kts | 189° |
| 2026-04-30 20:40 | 28.06663 | 113.70511 | 36170 ft | 499 kts | 189° |
| 2026-04-30 20:40 | 27.99738 | 113.69924 | 36167 ft | 499 kts | 190° |
| 2026-04-30 20:41 | 27.89355 | 113.68967 | 36171 ft | 500 kts | 190° |
| 2026-04-30 20:41 | 27.82407 | 113.68333 | 36171 ft | 502 kts | 190° |
| 2026-04-30 20:42 | 27.75436 | 113.67704 | 36176 ft | 503 kts | 190° |
| 2026-04-30 20:43 | 27.64945 | 113.66760 | 36164 ft | 505 kts | 189° |
| 2026-04-30 20:43 | 27.57891 | 113.66490 | 36159 ft | 508 kts | 186° |
| 2026-04-30 20:44 | 27.47287 | 113.66327 | 36170 ft | 508 kts | 186° |
| 2026-04-30 20:45 | 27.33157 | 113.66029 | 36164 ft | 507 kts | 186° |
| 2026-04-30 20:45 | 27.26106 | 113.65876 | 36161 ft | 507 kts | 186° |
| 2026-04-30 20:46 | 27.15508 | 113.66428 | 36174 ft | 514 kts | 175° |
| 2026-04-30 20:46 | 27.12008 | 113.67300 | 36163 ft | 518 kts | 170° |
| 2026-04-30 20:47 | 27.01575 | 113.70503 | 36174 ft | 518 kts | 169° |
| 2026-04-30 20:48 | 26.91134 | 113.73619 | 36179 ft | 518 kts | 170° |
| 2026-04-30 20:48 | 26.84164 | 113.75667 | 36162 ft | 518 kts | 170° |
| 2026-04-30 20:49 | 26.77194 | 113.77718 | 36166 ft | 518 kts | 170° |
| 2026-04-30 20:50 | 26.66758 | 113.80905 | 36175 ft | 518 kts | 169° |
| 2026-04-30 20:50 | 26.61270 | 113.82655 | 36170 ft | 518 kts | 169° |
| 2026-04-30 20:51 | 26.54328 | 113.84845 | 36173 ft | 518 kts | 169° |
| 2026-04-30 20:51 | 26.43915 | 113.88012 | 36180 ft | 517 kts | 171° |
| 2026-04-30 20:52 | 26.36994 | 113.89981 | 36173 ft | 516 kts | 171° |
| 2026-04-30 20:53 | 26.26556 | 113.92970 | 36185 ft | 517 kts | 170° |
| 2026-04-30 20:53 | 26.19720 | 113.94942 | 36185 ft | 517 kts | 170° |
| 2026-04-30 20:54 | 26.09280 | 113.97950 | 36190 ft | 517 kts | 170° |
| 2026-04-30 20:55 | 25.98838 | 114.00960 | 36191 ft | 517 kts | 170° |
| 2026-04-30 20:55 | 25.91893 | 114.03020 | 36202 ft | 517 kts | 169° |
| 2026-04-30 20:56 | 25.81477 | 114.06122 | 36198 ft | 516 kts | 169° |
| 2026-04-30 20:57 | 25.71060 | 114.09205 | 36201 ft | 517 kts | 169° |
| 2026-04-30 20:57 | 25.64115 | 114.11256 | 36202 ft | 517 kts | 169° |
| 2026-04-30 20:58 | 25.53684 | 114.14331 | 36194 ft | 517 kts | 169° |
| 2026-04-30 20:58 | 25.46730 | 114.16378 | 36192 ft | 517 kts | 169° |
| 2026-04-30 20:59 | 25.36305 | 114.19443 | 36196 ft | 516 kts | 169° |
| 2026-04-30 21:00 | 25.22478 | 114.23501 | 36189 ft | 515 kts | 169° |
| 2026-04-30 21:01 | 25.12058 | 114.26282 | 36182 ft | 509 kts | 178° |
| 2026-04-30 21:01 | 25.05062 | 114.26353 | 36194 ft | 500 kts | 190° |
| 2026-04-30 21:02 | 25.01648 | 114.25745 | 36194 ft | 495 kts | 195° |
| 2026-04-30 21:02 | 24.94909 | 114.24209 | 36203 ft | 494 kts | 196° |
| 2026-04-30 21:03 | 24.88162 | 114.22678 | 36191 ft | 496 kts | 195° |
| 2026-04-30 21:03 | 24.81396 | 114.21196 | 36188 ft | 496 kts | 195° |
| 2026-04-30 21:04 | 24.74618 | 114.19734 | 36201 ft | 496 kts | 195° |
| 2026-04-30 21:04 | 24.64448 | 114.17541 | 36192 ft | 496 kts | 195° |
| 2026-04-30 21:05 | 24.57675 | 114.16082 | 36189 ft | 496 kts | 195° |
| 2026-04-30 21:05 | 24.50905 | 114.14622 | 36194 ft | 496 kts | 195° |
| 2026-04-30 21:06 | 24.44136 | 114.13165 | 36193 ft | 496 kts | 195° |
| 2026-04-30 21:06 | 24.37371 | 114.11710 | 36188 ft | 495 kts | 194° |
| 2026-04-30 21:07 | 24.30694 | 114.09964 | 36196 ft | 492 kts | 199° |
| 2026-04-30 21:07 | 24.24107 | 114.07926 | 36186 ft | 492 kts | 199° |
| 2026-04-30 21:08 | 24.17517 | 114.05886 | 36180 ft | 492 kts | 199° |
| 2026-04-30 21:08 | 24.10921 | 114.03872 | 36182 ft | 492 kts | 199° |
| 2026-04-30 21:09 | 24.04324 | 114.01870 | 36186 ft | 492 kts | 199° |
| 2026-04-30 21:09 | 23.97721 | 113.99870 | 36171 ft | 492 kts | 199° |
| 2026-04-30 21:10 | 23.91163 | 113.97884 | 36172 ft | 492 kts | 199° |
| 2026-04-30 21:10 | 23.84567 | 113.95887 | 36181 ft | 492 kts | 199° |
| 2026-04-30 21:11 | 23.77968 | 113.93893 | 36169 ft | 492 kts | 199° |
| 2026-04-30 21:11 | 23.71373 | 113.91901 | 36161 ft | 492 kts | 199° |
| 2026-04-30 21:12 | 23.64777 | 113.89911 | 36161 ft | 492 kts | 199° |
| 2026-04-30 21:12 | 23.58178 | 113.87922 | 36172 ft | 492 kts | 199° |
| 2026-04-30 21:13 | 23.51585 | 113.85936 | 36159 ft | 492 kts | 199° |
| 2026-04-30 21:13 | 23.44986 | 113.83945 | 36145 ft | 492 kts | 199° |
| 2026-04-30 21:14 | 23.38387 | 113.81947 | 36159 ft | 492 kts | 199° |
| 2026-04-30 21:14 | 23.31785 | 113.79949 | 36148 ft | 492 kts | 199° |
| 2026-04-30 21:15 | 23.25190 | 113.77956 | 36147 ft | 492 kts | 199° |
| 2026-04-30 21:15 | 23.18591 | 113.75965 | 36147 ft | 492 kts | 199° |
| 2026-04-30 21:16 | 23.11990 | 113.73976 | 36142 ft | 492 kts | 199° |
| 2026-04-30 21:16 | 23.05392 | 113.71988 | 36139 ft | 492 kts | 199° |
| 2026-04-30 21:17 | 22.98783 | 113.70000 | 36128 ft | 493 kts | 199° |
| 2026-04-30 21:17 | 22.92171 | 113.68013 | 36122 ft | 493 kts | 199° |
| 2026-04-30 21:18 | 22.85563 | 113.66023 | 36131 ft | 493 kts | 199° |
| 2026-04-30 21:18 | 22.78948 | 113.64011 | 36126 ft | 494 kts | 199° |
| 2026-04-30 21:19 | 22.72328 | 113.61997 | 36126 ft | 494 kts | 199° |
| 2026-04-30 21:19 | 22.65706 | 113.59988 | 36125 ft | 494 kts | 198° |
| 2026-04-30 21:20 | 22.60422 | 113.58550 | 36108 ft | 496 kts | 188° |
| 2026-04-30 21:20 | 22.56964 | 113.58636 | 36125 ft | 502 kts | 172° |
| 2026-04-30 21:20 | 22.53623 | 113.59792 | 36126 ft | 509 kts | 155° |
| 2026-04-30 21:21 | 22.48896 | 113.63608 | 36126 ft | 517 kts | 132° |
| 2026-04-30 21:21 | 22.45062 | 113.70194 | 36128 ft | 520 kts | 121° |
| 2026-04-30 21:22 | 22.43266 | 113.73594 | 36125 ft | 521 kts | 122° |
| 2026-04-30 21:22 | 22.36921 | 113.83024 | 36115 ft | 515 kts | 146° |
| 2026-04-30 21:23 | 22.33838 | 113.84930 | 36127 ft | 509 kts | 161° |
| 2026-04-30 21:23 | 22.30479 | 113.86066 | 36124 ft | 505 kts | 172° |
| 2026-04-30 21:23 | 22.23581 | 113.86112 | 36136 ft | 495 kts | 188° |
| 2026-04-30 21:24 | 22.16692 | 113.85534 | 36125 ft | 498 kts | 187° |
| 2026-04-30 21:24 | 22.09763 | 113.85022 | 36122 ft | 500 kts | 187° |
| 2026-04-30 21:25 | 21.99377 | 113.84352 | 36115 ft | 500 kts | 187° |
| 2026-04-30 21:26 | 21.89069 | 113.83703 | 36028 ft | 499 kts | 187° |
| 2026-04-30 21:27 | 21.78720 | 113.83046 | 36005 ft | 495 kts | 187° |
| 2026-04-30 21:27 | 21.71860 | 113.82609 | 36007 ft | 493 kts | 187° |
| 2026-04-30 21:28 | 21.61581 | 113.81954 | 36010 ft | 493 kts | 187° |
| 2026-04-30 21:29 | 21.51318 | 113.81303 | 36012 ft | 492 kts | 187° |
| 2026-04-30 21:30 | 21.34264 | 113.80222 | 36000 ft | 490 kts | 187° |
| 2026-04-30 21:31 | 21.17256 | 113.79146 | 36001 ft | 489 kts | 187° |
| 2026-04-30 21:32 | 21.07063 | 113.78492 | 36002 ft | 489 kts | 188° |
| 2026-04-30 21:32 | 21.00308 | 113.77783 | 36001 ft | 487 kts | 190° |
| 2026-04-30 21:33 | 20.90207 | 113.76557 | 35997 ft | 487 kts | 190° |
| 2026-04-30 21:34 | 20.83464 | 113.75780 | 35997 ft | 487 kts | 190° |
| 2026-04-30 21:34 | 20.73343 | 113.74649 | 35997 ft | 488 kts | 190° |
| 2026-04-30 21:35 | 20.66598 | 113.73899 | 35997 ft | 487 kts | 190° |
| 2026-04-30 21:35 | 20.59847 | 113.73147 | 36000 ft | 487 kts | 190° |
| 2026-04-30 21:36 | 20.53105 | 113.72395 | 35992 ft | 487 kts | 190° |
| 2026-04-30 21:37 | 20.39622 | 113.70894 | 35985 ft | 487 kts | 190° |
| 2026-04-30 21:37 | 20.32888 | 113.70145 | 35999 ft | 486 kts | 190° |
| 2026-04-30 21:38 | 20.26153 | 113.69397 | 35991 ft | 486 kts | 190° |
| 2026-04-30 21:38 | 20.19429 | 113.68651 | 35988 ft | 486 kts | 190° |
| 2026-04-30 21:39 | 20.12715 | 113.67907 | 35991 ft | 485 kts | 190° |
| 2026-04-30 21:39 | 20.06007 | 113.67163 | 35982 ft | 484 kts | 190° |
| 2026-04-30 21:40 | 19.99349 | 113.66426 | 35985 ft | 484 kts | 190° |
| 2026-04-30 21:40 | 19.92648 | 113.65685 | 35984 ft | 484 kts | 190° |
| 2026-04-30 21:41 | 19.85952 | 113.64945 | 35990 ft | 484 kts | 190° |
| 2026-04-30 21:41 | 19.79211 | 113.64200 | 35987 ft | 484 kts | 190° |
| 2026-04-30 21:42 | 19.72559 | 113.63466 | 35986 ft | 484 kts | 190° |
| 2026-04-30 21:42 | 19.65860 | 113.62728 | 35984 ft | 484 kts | 190° |
| 2026-04-30 21:43 | 19.59161 | 113.61990 | 35987 ft | 484 kts | 190° |
| 2026-04-30 21:43 | 19.52459 | 113.61253 | 35986 ft | 484 kts | 190° |
| 2026-04-30 21:44 | 19.45757 | 113.60516 | 35982 ft | 484 kts | 190° |
| 2026-04-30 21:44 | 19.39064 | 113.59780 | 35983 ft | 484 kts | 190° |
| 2026-04-30 21:45 | 19.32362 | 113.59045 | 35982 ft | 484 kts | 190° |
| 2026-04-30 21:45 | 19.25668 | 113.58311 | 35980 ft | 484 kts | 190° |
| 2026-04-30 21:46 | 19.18967 | 113.57576 | 35978 ft | 484 kts | 190° |
| 2026-04-30 21:46 | 19.12262 | 113.56842 | 35982 ft | 484 kts | 190° |
| 2026-04-30 21:47 | 19.05561 | 113.56108 | 35977 ft | 485 kts | 190° |
| 2026-04-30 21:47 | 18.98846 | 113.55367 | 35980 ft | 484 kts | 191° |
| 2026-04-30 21:48 | 18.92170 | 113.54442 | 35976 ft | 484 kts | 192° |
| 2026-04-30 21:48 | 18.85500 | 113.53448 | 35975 ft | 484 kts | 192° |
| 2026-04-30 21:49 | 18.78825 | 113.52482 | 35974 ft | 484 kts | 192° |
| 2026-04-30 21:49 | 18.72142 | 113.51533 | 35974 ft | 485 kts | 192° |
| 2026-04-30 21:50 | 18.66819 | 113.50779 | 35978 ft | 485 kts | 192° |
| 2026-04-30 21:50 | 18.60146 | 113.49778 | 35971 ft | 482 kts | 196° |
| 2026-04-30 21:51 | 18.53941 | 113.47455 | 35980 ft | 474 kts | 210° |
| 2026-04-30 21:51 | 18.48416 | 113.43747 | 35981 ft | 470 kts | 219° |
| 2026-04-30 21:52 | 18.43171 | 113.39619 | 35971 ft | 471 kts | 219° |
| 2026-04-30 21:52 | 18.37906 | 113.35495 | 35970 ft | 472 kts | 219° |
| 2026-04-30 21:53 | 18.32608 | 113.31399 | 35968 ft | 473 kts | 219° |
| 2026-04-30 21:53 | 18.27285 | 113.27307 | 35969 ft | 474 kts | 219° |
| 2026-04-30 21:54 | 18.21960 | 113.23217 | 35971 ft | 474 kts | 219° |
| 2026-04-30 21:54 | 18.16625 | 113.19120 | 35972 ft | 475 kts | 219° |
| 2026-04-30 21:55 | 18.11292 | 113.15027 | 35970 ft | 475 kts | 219° |
| 2026-04-30 21:55 | 18.05961 | 113.10939 | 35968 ft | 475 kts | 219° |
| 2026-04-30 21:56 | 18.00626 | 113.06850 | 35965 ft | 475 kts | 219° |
| 2026-04-30 21:56 | 17.95291 | 113.02764 | 35968 ft | 475 kts | 219° |
| 2026-04-30 21:57 | 17.89958 | 112.98682 | 35963 ft | 475 kts | 219° |
| 2026-04-30 21:57 | 17.84620 | 112.94594 | 35964 ft | 475 kts | 219° |
| 2026-04-30 21:58 | 17.79328 | 112.90444 | 35969 ft | 475 kts | 220° |
| 2026-04-30 21:58 | 17.74056 | 112.86274 | 35965 ft | 475 kts | 220° |
| 2026-04-30 21:59 | 17.68775 | 112.82109 | 35964 ft | 475 kts | 220° |
| 2026-04-30 22:00 | 17.60828 | 112.75864 | 35964 ft | 476 kts | 220° |
| 2026-04-30 22:00 | 17.52869 | 112.69618 | 35964 ft | 477 kts | 220° |
| 2026-04-30 22:01 | 17.47558 | 112.65455 | 35963 ft | 477 kts | 220° |
| 2026-04-30 22:01 | 17.42241 | 112.61290 | 35959 ft | 477 kts | 220° |
| 2026-04-30 22:02 | 17.36921 | 112.57124 | 35968 ft | 478 kts | 220° |
| 2026-04-30 22:02 | 17.31598 | 112.52961 | 35967 ft | 478 kts | 220° |
| 2026-04-30 22:03 | 17.26272 | 112.48797 | 35965 ft | 478 kts | 220° |
| 2026-04-30 22:03 | 17.20943 | 112.44634 | 35964 ft | 478 kts | 220° |
| 2026-04-30 22:04 | 17.15611 | 112.40472 | 35965 ft | 478 kts | 220° |
| 2026-04-30 22:05 | 17.08508 | 112.34932 | 35959 ft | 479 kts | 220° |
| 2026-04-30 22:05 | 17.03168 | 112.30769 | 35961 ft | 479 kts | 220° |
| 2026-04-30 22:06 | 16.97823 | 112.26623 | 35970 ft | 479 kts | 220° |
| 2026-04-30 22:06 | 16.89712 | 112.20485 | 35960 ft | 480 kts | 219° |
| 2026-04-30 22:07 | 16.84300 | 112.16401 | 35961 ft | 480 kts | 219° |
| 2026-04-30 22:07 | 16.78887 | 112.12308 | 35964 ft | 480 kts | 219° |
| 2026-04-30 22:08 | 16.73474 | 112.08213 | 35961 ft | 481 kts | 219° |
| 2026-04-30 22:08 | 16.68059 | 112.04117 | 35958 ft | 481 kts | 219° |
| 2026-04-30 22:09 | 16.62639 | 112.00023 | 35958 ft | 481 kts | 219° |
| 2026-04-30 22:09 | 16.57215 | 111.95928 | 35957 ft | 481 kts | 219° |
| 2026-04-30 22:10 | 16.51794 | 111.91838 | 35958 ft | 481 kts | 219° |
| 2026-04-30 22:10 | 16.46366 | 111.87747 | 35960 ft | 481 kts | 220° |
| 2026-04-30 22:11 | 16.38224 | 111.81614 | 35955 ft | 482 kts | 219° |
| 2026-04-30 22:12 | 16.32794 | 111.77528 | 35952 ft | 482 kts | 219° |
| 2026-04-30 22:12 | 16.27357 | 111.73439 | 35953 ft | 482 kts | 219° |
| 2026-04-30 22:13 | 16.21921 | 111.69354 | 35950 ft | 482 kts | 219° |
| 2026-04-30 22:13 | 16.16475 | 111.65264 | 35952 ft | 483 kts | 219° |
| 2026-04-30 22:14 | 16.11023 | 111.61173 | 35951 ft | 483 kts | 219° |
| 2026-04-30 22:14 | 16.05562 | 111.57078 | 35953 ft | 484 kts | 219° |
| 2026-04-30 22:15 | 16.00136 | 111.53011 | 35955 ft | 484 kts | 219° |
| 2026-04-30 22:15 | 15.94628 | 111.48886 | 35952 ft | 485 kts | 219° |
| 2026-04-30 22:16 | 15.89150 | 111.44787 | 35955 ft | 485 kts | 219° |
| 2026-04-30 22:17 | 15.78183 | 111.36588 | 35950 ft | 486 kts | 219° |
| 2026-04-30 22:17 | 15.69947 | 111.30437 | 35950 ft | 487 kts | 219° |
| 2026-04-30 22:18 | 15.61698 | 111.24283 | 35951 ft | 487 kts | 219° |
| 2026-04-30 22:19 | 15.53430 | 111.18122 | 35949 ft | 488 kts | 219° |
| 2026-04-30 22:20 | 15.45151 | 111.11957 | 35950 ft | 489 kts | 219° |
| 2026-04-30 22:20 | 15.38037 | 111.06665 | 35947 ft | 489 kts | 219° |
| 2026-04-30 22:21 | 15.32515 | 111.02535 | 35947 ft | 490 kts | 219° |
| 2026-04-30 22:21 | 15.27027 | 110.98356 | 35948 ft | 490 kts | 219° |
| 2026-04-30 22:22 | 15.21539 | 110.94169 | 35948 ft | 490 kts | 219° |
| 2026-04-30 22:22 | 15.16045 | 110.89990 | 35947 ft | 490 kts | 219° |
| 2026-04-30 22:23 | 15.10544 | 110.85814 | 35947 ft | 490 kts | 219° |
| 2026-04-30 22:23 | 15.05039 | 110.81639 | 35946 ft | 491 kts | 219° |
| 2026-04-30 22:24 | 14.99530 | 110.77464 | 35948 ft | 491 kts | 219° |
| 2026-04-30 22:24 | 14.94024 | 110.73293 | 35948 ft | 491 kts | 219° |
| 2026-04-30 22:25 | 14.88508 | 110.69118 | 35949 ft | 491 kts | 219° |
| 2026-04-30 22:25 | 14.82993 | 110.64945 | 35948 ft | 492 kts | 219° |
| 2026-04-30 22:26 | 14.74708 | 110.58683 | 35949 ft | 492 kts | 219° |
| 2026-04-30 22:27 | 14.69180 | 110.54507 | 35947 ft | 492 kts | 219° |
| 2026-04-30 22:27 | 14.60881 | 110.48244 | 35947 ft | 493 kts | 219° |
| 2026-04-30 22:28 | 14.52582 | 110.41987 | 35948 ft | 493 kts | 219° |
| 2026-04-30 22:29 | 14.41505 | 110.33644 | 35947 ft | 493 kts | 219° |
| 2026-04-30 22:31 | 14.22109 | 110.19060 | 35948 ft | 494 kts | 218° |
| 2026-04-30 22:32 | 14.08220 | 110.08636 | 35945 ft | 495 kts | 218° |
| 2026-04-30 22:33 | 13.94197 | 109.98314 | 35949 ft | 498 kts | 215° |
| 2026-04-30 22:35 | 13.79443 | 109.88900 | 35950 ft | 500 kts | 214° |
| 2026-04-30 22:36 | 13.64725 | 109.79455 | 35947 ft | 500 kts | 214° |
| 2026-04-30 22:37 | 13.52925 | 109.71885 | 35950 ft | 499 kts | 214° |
| 2026-04-30 22:38 | 13.41145 | 109.64339 | 35952 ft | 498 kts | 214° |
| 2026-04-30 22:39 | 13.32319 | 109.58690 | 35953 ft | 498 kts | 214° |
| 2026-04-30 22:40 | 13.14654 | 109.47401 | 35954 ft | 499 kts | 214° |
| 2026-04-30 22:41 | 12.99893 | 109.37981 | 35958 ft | 500 kts | 214° |
| 2026-04-30 22:43 | 12.82124 | 109.26659 | 35961 ft | 502 kts | 213° |
| 2026-04-30 22:44 | 12.70257 | 109.19107 | 35966 ft | 502 kts | 213° |
| 2026-04-30 22:45 | 12.52421 | 109.07780 | 35971 ft | 503 kts | 213° |
| 2026-04-30 22:47 | 12.34553 | 108.96447 | 35980 ft | 504 kts | 213° |
| 2026-04-30 22:48 | 12.23630 | 108.89529 | 35994 ft | 505 kts | 213° |
| 2026-04-30 22:49 | 12.05698 | 108.78185 | 36002 ft | 505 kts | 213° |
| 2026-04-30 22:51 | 11.89224 | 108.67777 | 35997 ft | 505 kts | 213° |
| 2026-04-30 22:52 | 11.80270 | 108.62128 | 36006 ft | 504 kts | 213° |
| 2026-04-30 22:53 | 11.68323 | 108.54607 | 35988 ft | 505 kts | 213° |
| 2026-04-30 22:53 | 11.59366 | 108.48969 | 35981 ft | 504 kts | 213° |
| 2026-04-30 22:55 | 11.44442 | 108.39585 | 35962 ft | 504 kts | 212° |
| 2026-04-30 22:56 | 11.32502 | 108.32086 | 35945 ft | 504 kts | 212° |
| 2026-04-30 22:57 | 11.17584 | 108.22728 | 35933 ft | 504 kts | 212° |
| 2026-04-30 22:58 | 11.05655 | 108.15251 | 35923 ft | 503 kts | 212° |
| 2026-04-30 22:59 | 10.87815 | 108.03967 | 35909 ft | 503 kts | 214° |